Time;durP1;ratioP1;P1;durP2;ratioP2;P2;SDS_P1;SDS_P2;PMS_P1;PMS_P2;Temp;Humidity;BMP_temperature;BMP_pressure;BME280_temperature;BME280_humidity;BME280_pressure;Samples;Min_cycle;Max_cycle;Signal;HPM_P1;HPM_P2
2023/01/05 00:02:15;;;;;;;1.40;1.00;;;;;;;1.17;100.00;99625.38;1701957;82;21085;-51
2023/01/05 00:04:41;;;;;;;2.87;1.00;;;;;;;1.16;100.00;99607.72;1694387;83;21747;-51
2023/01/05 00:07:07;;;;;;;1.53;0.97;;;;;;;1.20;100.00;99613.84;1689433;83;21060;-51
2023/01/05 00:09:34;;;;;;;2.53;1.10;;;;;;;1.20;100.00;99598.81;1692079;82;21062;-49
2023/01/05 00:22:29;;;;;;;3.73;1.37;;;;;;;1.22;100.00;99590.40;1686211;83;21586;-51
2023/01/05 00:23:06;;;;;;;2.80;2.23;;;;;;;1.25;100.00;99563.85;1687942;83;21163;-50
2023/01/05 00:25:36;;;;;;;2.60;1.60;;;;;;;1.26;100.00;99562.95;1683754;83;21577;-52
2023/01/05 00:28:03;;;;;;;3.77;1.20;;;;;;;1.27;100.00;99554.11;1650131;84;21267;-51
2023/01/05 00:30:44;;;;;;;2.00;1.13;;;;;;;1.28;100.00;99554.51;1675387;83;23313;-51
2023/01/05 00:33:13;;;;;;;1.90;1.20;;;;;;;1.29;100.00;99546.11;1677465;83;21053;-51
2023/01/05 00:35:40;;;;;;;2.53;1.23;;;;;;;1.30;100.00;99543.88;1678915;83;21046;-51
2023/01/05 00:38:07;;;;;;;2.77;1.10;;;;;;;1.31;100.00;99529.28;1677677;83;21066;-50
2023/01/05 00:40:34;;;;;;;2.67;1.70;;;;;;;1.32;100.00;99511.16;1680144;83;21035;-52
2023/01/05 00:43:00;;;;;;;4.93;1.70;;;;;;;1.33;100.00;99502.75;1675160;83;21793;-50
2023/01/05 00:45:26;;;;;;;3.37;1.80;;;;;;;1.32;100.00;99493.92;1672281;83;21101;-51
2023/01/05 00:47:53;;;;;;;3.93;2.10;;;;;;;1.32;100.00;99479.78;1711899;82;22284;-51
2023/01/05 00:50:21;;;;;;;2.43;1.63;;;;;;;1.32;100.00;99476.68;1711496;82;21013;-51
2023/01/05 00:52:48;;;;;;;3.33;1.87;;;;;;;1.32;100.00;99468.72;1707208;82;21074;-50
2023/01/05 00:55:14;;;;;;;2.90;1.13;;;;;;;1.33;100.00;99462.97;1695042;83;23061;-51
2023/01/05 00:57:41;;;;;;;4.43;1.27;;;;;;;1.33;100.00;99465.63;1705037;82;21099;-50
2023/01/05 01:00:14;;;;;;;3.93;1.20;;;;;;;1.33;100.00;99458.55;1712323;82;20976;-51
2023/01/05 01:02:41;;;;;;;1.90;1.13;;;;;;;1.34;100.00;99452.80;1681715;83;21035;-59
2023/01/05 01:05:08;;;;;;;1.80;1.30;;;;;;;1.35;100.00;99436.87;1700148;83;21049;-52
2023/01/05 01:07:35;;;;;;;2.87;1.13;;;;;;;1.37;100.00;99430.19;1710381;82;22510;-50
2023/01/05 01:10:05;;;;;;;2.93;1.40;;;;;;;1.36;100.00;99416.05;1704273;82;21034;-51
2023/01/05 01:12:31;;;;;;;3.70;1.57;;;;;;;1.37;100.00;99416.92;1714892;82;21029;-49
2023/01/05 01:14:58;;;;;;;3.13;1.27;;;;;;;1.37;100.00;99409.84;1715144;82;21513;-50
2023/01/05 01:20:00;;;;;;;4.70;2.47;;;;;;;1.43;100.00;99389.00;1860318;75;27337;-50
2023/01/05 01:22:26;;;;;;;6.00;2.00;;;;;;;1.41;100.00;99406.26;1834619;77;21032;-49
2023/01/05 01:24:53;;;;;;;5.17;1.73;;;;;;;1.44;100.00;99395.61;1836528;77;21775;-51
2023/01/05 01:27:19;;;;;;;2.33;1.63;;;;;;;1.45;100.00;99385.39;1831399;77;20948;-50
2023/01/05 01:29:45;;;;;;;4.23;1.70;;;;;;;1.47;100.00;99388.02;1834979;77;20966;-50
2023/01/05 01:32:12;;;;;;;4.90;1.73;;;;;;;1.48;100.00;99380.05;1835555;76;21006;-50
2023/01/05 01:34:38;;;;;;;3.00;1.83;;;;;;;1.49;100.00;99357.93;1836856;77;21105;-50
2023/01/05 01:37:05;;;;;;;2.53;1.43;;;;;;;1.50;100.00;99345.09;1833307;75;21924;-50
2023/01/05 01:39:33;;;;;;;4.10;1.70;;;;;;;1.50;100.00;99338.91;1835295;77;21428;-51
2023/01/05 01:42:02;;;;;;;4.93;1.83;;;;;;;1.51;100.00;99334.04;1832173;77;21064;-50
2023/01/05 01:44:59;;;;;;;2.53;1.57;;;;;;;1.51;100.00;99326.95;1833176;77;21042;-51
2023/01/05 01:47:51;;;;;;;2.10;1.37;;;;;;;1.53;100.00;99317.65;1832996;76;21041;-50
2023/01/05 01:50:29;;;;;;;5.17;1.80;;;;;;;1.53;100.00;99310.14;1835570;77;22022;-49
2023/01/05 01:53:01;;;;;;;3.90;2.00;;;;;;;1.53;100.00;99305.23;1833978;77;21166;-50
2023/01/05 01:55:27;;;;;;;7.23;1.70;;;;;;;1.53;100.00;99288.92;1836914;77;21469;-50
2023/01/05 01:57:54;;;;;;;2.53;1.50;;;;;;;1.53;100.00;99271.23;1829535;77;21111;-49
2023/01/05 02:00:20;;;;;;;4.80;1.70;;;;;;;1.55;100.00;99259.23;1834747;77;21030;-49
2023/01/05 02:02:53;;;;;;;4.47;1.60;;;;;;;1.56;100.00;99247.27;1836119;77;21096;-54
2023/01/05 02:05:26;;;;;;;3.20;1.37;;;;;;;1.58;100.00;99246.80;1840291;76;21020;-50
2023/01/05 02:07:53;;;;;;;4.50;1.37;;;;;;;1.59;100.00;99237.94;1831129;77;21001;-50
2023/01/05 02:10:43;;;;;;;5.23;1.20;;;;;;;1.61;100.00;99224.66;1765273;79;21486;-50
2023/01/05 02:13:30;;;;;;;3.37;1.47;;;;;;;1.62;100.00;99210.00;1752849;78;21501;-50
2023/01/05 02:16:15;;;;;;;4.70;1.70;;;;;;;1.64;100.00;99208.65;1750047;79;21917;-58
2023/01/05 02:18:57;;;;;;;3.10;1.60;;;;;;;1.62;100.00;99198.52;1743164;80;22158;-49
2023/01/05 02:21:49;;;;;;;3.93;1.73;;;;;;;1.61;100.00;99194.14;1725439;81;21113;-49
2023/01/05 02:24:47;;;;;;;4.50;1.00;;;;;;;1.61;100.00;99191.49;1744510;80;21027;-48
2023/01/05 02:27:36;;;;;;;6.37;2.27;;;;;;;1.61;100.00;99180.43;1711788;82;21105;-50
2023/01/05 02:30:48;;;;;;;4.37;2.70;;;;;;;1.63;100.00;99172.41;1731898;80;21853;-51
2023/01/05 02:33:54;;;;;;;8.10;3.07;;;;;;;1.63;100.00;99182.57;1727307;80;21564;-50
2023/01/05 02:37:54;;;;;;;5.93;2.73;;;;;;;1.63;100.00;99157.82;1853859;75;27377;-50
2023/01/05 02:40:36;;;;;;;3.60;2.85;;;;;;;1.63;100.00;99173.73;1819418;77;21513;-50
2023/01/05 02:43:03;;;;;;;4.07;1.73;;;;;;;1.64;100.00;99176.81;1785220;78;23001;-51
2023/01/05 02:45:30;;;;;;;3.13;2.40;;;;;;;1.65;100.00;99172.80;1768329;79;21033;-50
2023/01/05 02:47:58;;;;;;;3.83;1.60;;;;;;;1.67;100.00;99176.77;1763131;79;21401;-51
2023/01/05 02:50:34;;;;;;;3.23;1.80;;;;;;;1.69;100.00;99161.23;1766492;79;21100;-58
2023/01/05 02:53:09;;;;;;;3.70;2.10;;;;;;;1.73;100.00;99152.73;1765634;78;21096;-50
2023/01/05 02:55:47;;;;;;;7.43;2.70;;;;;;;1.75;100.00;99149.16;1740850;79;21514;-50
2023/01/05 02:58:25;;;;;;;5.53;2.63;;;;;;;1.78;100.00;99140.27;1741767;78;21058;-51
2023/01/05 03:00:59;;;;;;;3.00;1.43;;;;;;;1.79;100.00;99129.58;1768328;79;21040;-50
2023/01/05 03:03:52;;;;;;;3.00;1.77;;;;;;;1.81;100.00;99128.23;1774251;79;21073;-49
2023/01/05 03:06:31;;;;;;;2.33;1.72;;;;;;;1.80;100.00;99124.70;1665409;82;21115;-50
2023/01/05 03:09:01;;;;;;;3.07;1.90;;;;;;;1.82;100.00;99110.08;1772976;78;21832;-50
2023/01/05 03:14:47;;;;;;;5.53;2.67;;;;;;;1.84;100.00;99089.23;1731737;81;21036;-50
2023/01/05 03:17:16;;;;;;;5.47;1.77;;;;;;;1.87;100.00;99079.02;1716384;80;21064;-50
2023/01/05 03:19:45;;;;;;;7.43;2.60;;;;;;;1.89;100.00;99081.16;1694653;81;21084;-51
2023/01/05 03:37:00;;;;;;;6.23;2.53;;;;;;;1.81;100.00;99026.94;1752504;80;21834;-52
2023/01/05 03:39:27;;;;;;;4.15;2.62;;;;;;;1.81;100.00;99016.78;1752795;80;21032;-51
2023/01/05 03:41:53;;;;;;;3.77;2.43;;;;;;;1.81;100.00;99007.49;1756166;80;21029;-51
2023/01/05 03:44:20;;;;;;;3.23;2.70;;;;;;;1.81;100.00;98997.75;1746670;80;21322;-52
2023/01/05 03:46:47;;;;;;;3.17;2.20;;;;;;;1.81;100.00;98995.55;1742535;80;21644;-52
2023/01/05 03:49:14;;;;;;;5.80;3.07;;;;;;;1.81;100.00;98996.88;1734446;80;23989;-52
2023/01/05 03:51:43;;;;;;;5.60;3.10;;;;;;;1.81;100.00;98992.90;1739826;81;21096;-52
2023/01/05 03:54:10;;;;;;;4.70;3.07;;;;;;;1.82;100.00;98976.07;1756391;80;21518;-51
2023/01/05 03:56:37;;;;;;;4.67;2.73;;;;;;;1.80;100.00;98970.80;1753268;80;21287;-51
2023/01/05 03:59:04;;;;;;;4.30;2.87;;;;;;;1.80;100.00;98962.84;1755040;80;20995;-53
2023/01/05 04:01:32;;;;;;;3.27;2.40;;;;;;;1.80;100.00;98957.98;1758301;80;21875;-52
2023/01/05 04:03:58;;;;;;;4.40;2.77;;;;;;;1.80;100.00;98951.34;1742333;80;21018;-52
2023/01/05 04:06:25;;;;;;;4.53;2.00;;;;;;;1.79;100.00;98945.17;1749175;81;21054;-53
2023/01/05 04:08:52;;;;;;;4.33;2.97;;;;;;;1.81;100.00;98938.50;1736498;80;21472;-52
2023/01/05 04:11:20;;;;;;;4.97;3.20;;;;;;;1.79;100.00;98936.33;1745896;79;21128;-52
2023/01/05 04:13:49;;;;;;;4.73;3.60;;;;;;;1.80;100.00;98926.14;1736493;81;21976;-52
2023/01/05 04:16:16;;;;;;;4.97;3.03;;;;;;;1.80;100.00;98923.48;1735566;81;21104;-52
2023/01/05 04:18:44;;;;;;;3.97;2.57;;;;;;;1.79;100.00;98919.96;1736435;81;21460;-52
2023/01/05 04:21:11;;;;;;;4.27;2.63;;;;;;;1.78;100.00;98906.31;1732796;81;21006;-52
2023/01/05 04:23:37;;;;;;;3.33;2.47;;;;;;;1.80;100.00;98903.13;1738166;80;21065;-53
2023/01/05 04:26:04;;;;;;;3.57;2.67;;;;;;;1.83;100.00;98886.27;1743143;81;21783;-52
2023/01/05 04:28:31;;;;;;;4.43;2.70;;;;;;;1.83;100.00;98875.66;1736092;80;20970;-54
2023/01/05 04:30:57;;;;;;;4.47;3.40;;;;;;;1.85;100.00;98869.41;1736802;80;21461;-53
2023/01/05 04:33:24;;;;;;;3.50;2.23;;;;;;;1.86;100.00;98852.58;1703583;81;21557;-54
2023/01/05 04:35:51;;;;;;;3.97;2.30;;;;;;;1.87;100.00;98859.59;1735530;81;21040;-54
2023/01/05 04:38:18;;;;;;;5.20;3.07;;;;;;;1.87;100.00;98843.67;1739135;80;21941;-54
2023/01/05 04:40:49;;;;;;;5.63;3.60;;;;;;;1.87;100.00;98846.33;1737624;81;21049;-54
2023/01/05 04:43:15;;;;;;;4.07;3.17;;;;;;;1.87;100.00;98837.03;1737930;80;21041;-54
2023/01/05 04:45:42;;;;;;;3.73;2.23;;;;;;;1.89;100.00;98833.02;1731302;81;21045;-55
2023/01/05 04:48:09;;;;;;;2.77;2.23;;;;;;;1.89;100.00;98819.30;1732836;80;21066;-54
2023/01/05 04:50:37;;;;;;;4.50;2.57;;;;;;;1.90;100.00;98810.42;1731906;81;22793;-54
2023/01/05 04:53:05;;;;;;;3.00;2.40;;;;;;;1.91;100.00;98829.88;1738977;81;21084;-54
2023/01/05 04:55:33;;;;;;;3.90;2.93;;;;;;;1.94;100.00;98813.00;1711003;81;21035;-54
2023/01/05 04:58:01;;;;;;;3.77;2.80;;;;;;;1.97;100.00;98801.83;1733631;80;21034;-55
2023/01/05 05:00:30;;;;;;;6.20;3.43;;;;;;;2.00;100.00;98795.11;1733380;80;21369;-55
2023/01/05 05:02:57;;;;;;;4.03;2.90;;;;;;;2.01;100.00;98811.91;1734451;81;21813;-55
2023/01/05 05:05:24;;;;;;;4.63;3.10;;;;;;;2.03;100.00;98798.14;1733034;80;21085;-55
2023/01/05 05:07:52;;;;;;;4.93;2.73;;;;;;;2.04;100.00;98799.40;1741446;80;21106;-52
2023/01/05 05:10:18;;;;;;;5.30;3.07;;;;;;;2.06;100.00;98792.73;1735813;80;21325;-53
2023/01/05 05:12:46;;;;;;;8.97;3.70;;;;;;;2.06;100.00;98777.67;1729185;80;21640;-52
2023/01/05 05:15:14;;;;;;;3.87;3.17;;;;;;;2.06;100.00;98768.38;1739899;80;22518;-52
2023/01/05 05:17:42;;;;;;;4.53;2.57;;;;;;;2.08;100.00;98768.34;1739852;81;21325;-53
2023/01/05 05:20:11;;;;;;;3.53;2.93;;;;;;;2.10;100.00;98765.19;1735230;80;21096;-53
2023/01/05 05:22:38;;;;;;;5.00;3.07;;;;;;;2.13;100.00;98761.09;1743041;80;21066;-53
2023/01/05 05:25:06;;;;;;;4.43;2.50;;;;;;;2.14;100.00;98758.40;1736171;80;21416;-53
2023/01/05 05:27:33;;;;;;;3.80;2.90;;;;;;;2.15;100.00;98752.18;1733837;81;22466;-53
2023/01/05 05:29:59;;;;;;;3.57;2.70;;;;;;;2.16;100.00;98753.92;1733603;81;21700;-52
2023/01/05 05:32:26;;;;;;;3.63;3.00;;;;;;;2.20;100.00;98749.41;1737321;81;21140;-52
2023/01/05 05:34:52;;;;;;;3.77;3.13;;;;;;;2.23;100.00;98732.03;1728558;81;21420;-53
2023/01/05 05:37:18;;;;;;;4.53;3.10;;;;;;;2.23;100.00;98736.88;1733072;80;21783;-53
2023/01/05 05:39:45;;;;;;;7.97;4.07;;;;;;;2.25;100.00;98728.42;1731177;80;21824;-53
2023/01/05 05:42:11;;;;;;;5.20;3.23;;;;;;;2.26;100.00;98722.20;1731897;80;21083;-53
2023/01/05 05:44:38;;;;;;;3.70;2.53;;;;;;;2.30;100.00;98722.11;1726795;81;21054;-53
2023/01/05 05:47:04;;;;;;;5.87;3.23;;;;;;;2.31;100.00;98715.86;1737880;81;21073;-53
2023/01/05 05:49:31;;;;;;;6.47;3.40;;;;;;;2.32;100.00;98700.33;1736428;80;21132;-53
2023/01/05 05:51:57;;;;;;;3.73;2.17;;;;;;;2.33;100.00;98694.11;1728934;80;21919;-54
2023/01/05 05:54:24;;;;;;;2.63;2.43;;;;;;;2.34;100.00;98678.13;1734977;80;21045;-53
2023/01/05 05:56:50;;;;;;;4.37;2.90;;;;;;;2.36;100.00;98674.11;1739780;81;21140;-53
2023/01/05 05:59:18;;;;;;;4.67;2.83;;;;;;;2.38;100.00;98670.95;1741899;81;21089;-53
2023/01/05 06:01:45;;;;;;;3.57;2.87;;;;;;;2.42;100.00;98665.93;1738071;80;21092;-54
2023/01/05 06:04:11;;;;;;;6.37;3.23;;;;;;;2.44;100.00;98662.77;1735443;80;22619;-54
2023/01/05 06:06:39;;;;;;;5.30;3.40;;;;;;;2.46;100.00;98664.47;1729392;81;21031;-54
2023/01/05 06:09:05;;;;;;;2.97;2.47;;;;;;;2.49;100.00;98660.36;1735800;80;21054;-53
2023/01/05 06:11:33;;;;;;;5.60;3.00;;;;;;;2.51;100.00;98653.67;1735921;79;21040;-53
2023/01/05 06:14:01;;;;;;;4.77;3.43;;;;;;;2.54;100.00;98646.95;1728437;80;21064;-53
2023/01/05 06:16:28;;;;;;;4.33;2.93;;;;;;;2.57;100.00;98650.34;1740877;80;21833;-53
2023/01/05 06:18:54;;;;;;;7.87;3.87;;;;;;;2.61;100.00;98645.81;1734667;80;22070;-53
2023/01/05 06:21:21;;;;;;;4.67;3.23;;;;;;;2.64;100.00;98635.06;1735081;80;21084;-54
2023/01/05 06:23:47;;;;;;;4.90;3.50;;;;;;;2.68;100.00;98639.37;1733613;81;21057;-54
2023/01/05 06:26:13;;;;;;;7.73;3.83;;;;;;;2.70;100.00;98640.19;1737922;81;21518;-54
2023/01/05 06:28:40;;;;;;;4.93;3.03;;;;;;;2.74;100.00;98646.25;1736058;80;21819;-54
2023/01/05 06:31:06;;;;;;;4.70;3.47;;;;;;;2.75;100.00;98636.03;1743360;80;21346;-54
2023/01/05 06:33:32;;;;;;;3.80;3.50;;;;;;;2.79;100.00;98627.92;1726044;81;21061;-53
2023/01/05 06:35:59;;;;;;;5.37;3.43;;;;;;;2.82;100.00;98630.45;1734211;81;21061;-54
2023/01/05 06:38:25;;;;;;;4.87;3.17;;;;;;;2.85;100.00;98613.08;1726707;80;21351;-54
2023/01/05 06:40:53;;;;;;;6.20;3.47;;;;;;;2.87;100.00;98603.27;1737164;80;21822;-55
2023/01/05 06:43:20;;;;;;;5.37;3.83;;;;;;;2.90;100.00;98608.45;1729060;81;21488;-54
2023/01/05 06:45:46;;;;;;;2.93;2.50;;;;;;;2.92;100.00;98605.28;1733593;81;20993;-54
2023/01/05 06:48:13;;;;;;;6.00;4.00;;;;;;;2.94;100.00;98614.08;1735498;80;21377;-55
2023/01/05 06:50:39;;;;;;;3.03;2.63;;;;;;;2.96;100.00;98610.91;1735145;81;21064;-54
2023/01/05 06:53:05;;;;;;;3.03;2.73;;;;;;;2.99;100.00;98608.13;1732714;80;21854;-54
2023/01/05 06:55:32;;;;;;;7.10;3.53;;;;;;;3.02;100.00;98589.42;1730655;81;21064;-55
2023/01/05 06:57:58;;;;;;;5.83;3.67;;;;;;;3.05;100.00;98599.08;1736356;81;21041;-54
2023/01/05 07:00:25;;;;;;;8.07;3.07;;;;;;;3.08;100.00;98590.11;1728678;81;21046;-54
2023/01/05 07:02:51;;;;;;;3.87;3.37;;;;;;;3.11;100.00;98605.95;1736115;81;21515;-53
2023/01/05 07:05:19;;;;;;;3.50;2.67;;;;;;;3.13;100.00;98584.17;1736332;81;21382;-53
2023/01/05 07:07:47;;;;;;;7.07;3.87;;;;;;;3.15;100.00;98574.36;1741189;80;21034;-54
2023/01/05 07:10:13;;;;;;;5.73;4.07;;;;;;;3.17;100.00;98561.39;1729315;81;21036;-55
2023/01/05 07:12:39;;;;;;;5.33;3.30;;;;;;;3.18;100.00;98564.45;1730937;81;21145;-54
2023/01/05 07:15:08;;;;;;;3.27;2.97;;;;;;;3.21;100.00;98565.69;1752746;80;21033;-54
2023/01/05 07:17:35;;;;;;;4.37;3.97;;;;;;;3.24;100.00;98564.67;1746191;80;21896;-54
2023/01/05 07:20:04;;;;;;;4.57;3.77;;;;;;;3.25;100.00;98556.66;1725623;81;21548;-55
2023/01/05 07:22:31;;;;;;;6.73;3.33;;;;;;;3.26;100.00;98546.42;1733101;81;21096;-54
2023/01/05 07:24:58;;;;;;;5.33;2.80;;;;;;;3.31;100.00;98551.13;1726911;81;21037;-55
2023/01/05 07:27:24;;;;;;;5.90;3.83;;;;;;;3.33;100.00;98541.73;1732111;81;21616;-55
2023/01/05 07:29:51;;;;;;;3.90;3.60;;;;;;;3.33;100.00;98531.09;1729469;81;22017;-56
2023/01/05 07:32:18;;;;;;;4.33;3.67;;;;;;;3.35;100.00;98530.58;1729241;81;21601;-54
2023/01/05 07:34:44;;;;;;;5.33;4.30;;;;;;;3.38;100.00;98540.64;1738391;81;21045;-54
2023/01/05 07:37:10;;;;;;;4.17;3.63;;;;;;;3.40;100.00;98539.27;1737113;81;21103;-55
2023/01/05 07:39:37;;;;;;;5.13;3.00;;;;;;;3.40;100.00;98528.13;1733626;81;21051;-54
2023/01/05 07:42:04;;;;;;;5.03;4.57;;;;;;;3.44;100.00;98520.91;1731407;81;23213;-54
2023/01/05 07:44:30;;;;;;;5.77;3.17;;;;;;;3.46;100.00;98523.05;1732403;81;21062;-54
2023/01/05 07:46:57;;;;;;;5.07;3.90;;;;;;;3.51;100.00;98513.09;1733031;81;21022;-55
2023/01/05 07:49:24;;;;;;;11.97;5.10;;;;;;;3.54;100.00;98506.33;1731763;81;21057;-54
2023/01/05 07:51:50;;;;;;;20.00;7.47;;;;;;;3.56;100.00;98503.15;1722121;81;21628;-55
2023/01/05 07:54:17;;;;;;;21.47;9.10;;;;;;;3.59;100.00;98504.33;1720205;81;21890;-54
2023/01/05 07:56:44;;;;;;;16.77;7.27;;;;;;;3.62;100.00;98499.36;1743522;81;21072;-54
2023/01/05 07:59:10;;;;;;;16.20;7.27;;;;;;;3.64;100.00;98509.48;1729404;81;21541;-54
2023/01/05 08:01:37;;;;;;;17.83;7.07;;;;;;;3.67;100.00;98513.34;1737181;80;21138;-54
2023/01/05 08:04:03;;;;;;;17.07;8.47;;;;;;;3.69;100.00;98499.05;1731038;80;21593;-54
2023/01/05 08:06:30;;;;;;;9.57;4.10;;;;;;;3.72;100.00;98481.64;1743911;81;21909;-54
2023/01/05 08:08:57;;;;;;;7.33;4.27;;;;;;;3.75;100.00;98505.91;1737202;81;21559;-54
2023/01/05 08:11:25;;;;;;;4.70;3.03;;;;;;;3.77;100.00;98489.42;1738091;81;21056;-55
2023/01/05 08:14:01;;;;;;;5.67;3.03;;;;;;;3.82;100.00;98491.91;1729171;81;21109;-55
2023/01/05 08:16:30;;;;;;;3.70;2.97;;;;;;;3.85;100.00;98478.45;1732915;80;21061;-55
2023/01/05 08:18:56;;;;;;;3.30;2.80;;;;;;;3.89;100.00;98478.75;1737716;81;21720;-55
2023/01/05 08:21:22;;;;;;;3.23;2.80;;;;;;;3.92;100.00;98471.48;1735619;81;21069;-56
2023/01/05 08:23:52;;;;;;;4.27;2.90;;;;;;;3.96;100.00;98477.09;1734988;80;21482;-55
2023/01/05 08:26:21;;;;;;;3.00;2.70;;;;;;;3.99;100.00;98477.44;1733655;80;22444;-55
2023/01/05 08:28:48;;;;;;;3.67;2.67;;;;;;;4.04;100.00;98465.66;1736945;80;21389;-55
2023/01/05 08:31:24;;;;;;;3.27;2.97;;;;;;;4.08;100.00;98463.24;1735273;80;21848;-55
2023/01/05 08:33:58;;;;;;;4.60;3.00;;;;;;;4.12;100.00;98462.66;1727712;80;21488;-55
2023/01/05 08:36:25;;;;;;;4.97;2.80;;;;;;;4.15;100.00;98451.42;1735219;80;21525;-55
2023/01/05 08:38:53;;;;;;;3.43;3.13;;;;;;;4.19;100.00;98450.34;1737141;81;21056;-55
2023/01/05 08:41:34;;;;;;;6.00;3.53;;;;;;;4.25;100.00;98452.36;1743735;81;21074;-55
2023/01/05 08:44:08;;;;;;;3.63;2.40;;;;;;;4.29;100.00;98452.61;1739984;80;21828;-55
2023/01/05 08:46:35;;;;;;;4.53;2.17;;;;;;;4.32;100.00;98441.38;1733395;81;21068;-55
2023/01/05 08:49:04;;;;;;;3.97;2.53;;;;;;;4.36;100.00;98430.09;1735622;81;21393;-55
2023/01/05 08:51:30;;;;;;;4.83;2.17;;;;;;;4.39;100.00;98427.30;1728505;80;21444;-55
2023/01/05 08:53:57;;;;;;;5.37;2.00;;;;;;;4.43;100.00;98428.42;1736111;80;21562;-55
2023/01/05 08:56:25;;;;;;;3.30;2.90;;;;;;;4.48;100.00;98427.77;1739292;80;21947;-56
2023/01/05 08:58:52;;;;;;;2.33;1.57;;;;;;;4.53;100.00;98424.41;1734824;81;21536;-55
2023/01/05 09:01:20;;;;;;;2.50;1.57;;;;;;;4.58;100.00;98418.03;1736036;80;21380;-55
2023/01/05 09:03:47;;;;;;;2.90;1.60;;;;;;;4.62;100.00;98414.27;1734442;80;21631;-55
2023/01/05 09:06:14;;;;;;;1.90;1.70;;;;;;;4.66;100.00;98402.55;1733675;80;21115;-55
2023/01/05 09:08:42;;;;;;;2.47;1.73;;;;;;;4.72;100.00;98400.93;1726926;80;21061;-55
2023/01/05 09:11:14;;;;;;;1.90;1.40;;;;;;;4.77;100.00;98396.23;1730395;80;21053;-55
2023/01/05 09:13:43;;;;;;;12.33;4.30;;;;;;;4.82;100.00;98390.24;1733536;80;21057;-55
2023/01/05 09:16:12;;;;;;;15.70;5.17;;;;;;;4.87;100.00;98377.08;1742536;80;21375;-55
2023/01/05 09:18:39;;;;;;;5.90;2.97;;;;;;;4.91;100.00;98374.69;1715391;81;21081;-56
2023/01/05 09:21:07;;;;;;;3.37;1.90;;;;;;;4.97;100.00;98368.65;1744572;80;22569;-55
2023/01/05 09:23:33;;;;;;;2.97;1.40;;;;;;;5.01;100.00;98371.58;1743807;80;21568;-55
2023/01/05 09:25:59;;;;;;;1.70;1.50;;;;;;;5.05;100.00;98368.68;1743570;80;21032;-55
2023/01/05 09:28:26;;;;;;;2.00;1.30;;;;;;;5.08;100.00;98369.02;1738970;80;21032;-55
2023/01/05 09:30:54;;;;;;;2.23;1.60;;;;;;;5.11;100.00;98364.38;1742404;80;22429;-55
2023/01/05 09:33:20;;;;;;;1.80;1.40;;;;;;;5.13;100.00;98360.31;1739134;80;22520;-55
2023/01/05 09:35:54;;;;;;;3.07;1.30;;;;;;;5.13;100.00;98347.84;1745668;80;21005;-56
2023/01/05 09:38:23;;;;;;;1.50;1.30;;;;;;;5.16;100.00;98344.16;1740149;80;21053;-55
2023/01/05 09:40:50;;;;;;;1.80;1.10;;;;;;;5.17;100.00;98344.09;1739979;80;21459;-56
2023/01/05 09:43:22;;;;;;;2.20;1.33;;;;;;;5.20;100.00;98344.39;1745925;80;21065;-55
2023/01/05 09:45:49;;;;;;;2.00;1.13;;;;;;;5.23;100.00;98345.13;1745058;80;21920;-56
2023/01/05 09:48:15;;;;;;;2.17;1.40;;;;;;;5.25;100.00;98338.38;1741921;80;20990;-56
2023/01/05 09:50:42;;;;;;;1.83;1.50;;;;;;;5.24;100.00;98329.98;1764794;80;21013;-56
2023/01/05 09:53:08;;;;;;;3.33;1.40;;;;;;;5.24;100.00;98325.98;1760153;80;20992;-55
2023/01/05 09:55:35;;;;;;;2.07;1.70;;;;;;;5.25;100.00;98313.04;1738668;80;21013;-56
2023/01/05 09:58:06;;;;;;;2.50;1.80;;;;;;;5.25;100.00;98308.57;1736067;80;21872;-56
2023/01/05 10:00:32;;;;;;;8.73;2.97;;;;;;;5.26;100.00;98308.10;1739483;80;21009;-56
2023/01/05 10:03:01;;;;;;;5.83;3.37;;;;;;;5.27;100.00;98304.00;1738474;80;21013;-56
2023/01/05 10:05:28;;;;;;;7.63;2.57;;;;;;;5.29;100.00;98294.13;1734355;80;21440;-56
2023/01/05 10:08:03;;;;;;;4.90;1.43;;;;;;;5.32;100.00;98297.12;1738553;80;21053;-56
2023/01/05 10:14:03;;;;;;;3.60;2.23;;;;;;;5.31;100.00;98290.91;1735296;80;21049;-55
2023/01/05 10:16:30;;;;;;;4.30;2.77;;;;;;;5.33;100.00;98292.17;1755273;80;21071;-56
2023/01/05 10:18:56;;;;;;;2.10;1.33;;;;;;;5.33;100.00;98295.71;1753243;80;21052;-56
2023/01/05 10:21:51;;;;;;;1.73;1.03;;;;;;;5.36;100.00;98286.66;1762621;80;21062;-55
2023/01/05 10:24:37;;;;;;;3.03;1.77;;;;;;;5.36;100.00;98284.00;1719464;81;21399;-55
2023/01/05 10:27:14;;;;;;;2.43;1.77;;;;;;;5.37;100.00;98283.06;1737915;80;21057;-55
2023/01/05 10:29:45;;;;;;;3.00;1.40;;;;;;;5.37;100.00;98280.39;1736415;80;21630;-55
2023/01/05 10:32:25;;;;;;;3.03;1.57;;;;;;;5.38;100.00;98278.13;1742297;80;21064;-55
2023/01/05 10:35:03;;;;;;;1.43;1.00;;;;;;;5.40;100.00;98270.91;1734116;80;21049;-55
2023/01/05 10:37:56;;;;;;;4.00;1.10;;;;;;;5.43;100.00;98257.42;1734663;80;22220;-55
2023/01/05 10:40:50;;;;;;;2.57;1.10;;;;;;;5.44;100.00;98260.48;1739545;80;22352;-55
2023/01/05 10:43:58;;;;;;;1.30;0.80;;;;;;;5.45;100.00;98261.32;1744050;80;21079;-55
2023/01/05 10:46:24;;;;;;;3.67;1.23;;;;;;;5.48;100.00;98254.03;1741131;80;21531;-55
2023/01/05 10:48:51;;;;;;;1.27;0.87;;;;;;;5.50;100.00;98240.14;1739497;80;21083;-55
2023/01/05 10:51:17;;;;;;;1.10;0.90;;;;;;;5.52;100.00;98240.08;1738529;80;21965;-55
2023/01/05 10:53:44;;;;;;;1.23;0.90;;;;;;;5.52;100.00;98232.94;1738824;80;21576;-55
2023/01/05 10:56:26;;;;;;;1.83;1.00;;;;;;;5.53;100.00;98238.63;1736573;80;21080;-55
2023/01/05 10:59:08;;;;;;;1.67;0.87;;;;;;;5.54;100.00;98236.36;1742421;80;21060;-55
2023/01/05 11:01:36;;;;;;;1.70;0.77;;;;;;;5.56;100.00;98237.15;1754001;79;21098;-55
2023/01/05 11:04:15;;;;;;;2.47;0.80;;;;;;;5.59;100.00;98238.34;1755314;80;21825;-55
2023/01/05 11:06:43;;;;;;;2.23;0.90;;;;;;;5.63;100.00;98231.02;1719666;81;21135;-55
2023/01/05 11:09:22;;;;;;;0.97;0.70;;;;;;;5.68;100.00;98241.86;1724775;81;21564;-55
2023/01/05 11:12:00;;;;;;;0.90;0.73;;;;;;;5.70;100.00;98232.41;1721959;81;21289;-55
2023/01/05 11:14:28;;;;;;;3.30;0.73;;;;;;;5.73;100.00;98232.73;1733232;80;21617;-56
2023/01/05 11:17:02;;;;;;;2.67;0.70;;;;;;;5.75;100.00;98219.70;1732190;80;21916;-55
2023/01/05 11:19:31;;;;;;;1.63;0.80;;;;;;;5.78;100.00;98208.88;1755259;79;21099;-55
2023/01/05 11:21:57;;;;;;;2.97;0.90;;;;;;;5.82;100.00;98212.22;1752952;80;21134;-55
2023/01/05 11:24:33;;;;;;;1.03;0.80;;;;;;;5.85;100.00;98203.59;1753514;79;21499;-55
2023/01/05 11:27:08;;;;;;;1.40;0.60;;;;;;;5.90;100.00;98210.90;1750935;80;21039;-56
2023/01/05 11:29:35;;;;;;;0.80;0.60;;;;;;;5.93;100.00;98197.39;1730928;80;21767;-56
2023/01/05 11:32:04;;;;;;;2.10;0.60;;;;;;;5.97;100.00;98205.61;1739316;81;21254;-55
2023/01/05 11:34:42;;;;;;;0.60;0.50;;;;;;;6.01;100.00;98200.98;1732470;81;22843;-56
2023/01/05 11:37:25;;;;;;;0.80;0.60;;;;;;;6.03;100.00;98203.10;1730148;81;21037;-56
2023/01/05 11:39:57;;;;;;;0.80;0.60;;;;;;;6.06;100.00;98203.78;1723129;81;21088;-55
2023/01/05 11:42:28;;;;;;;0.70;0.60;;;;;;;6.08;100.00;98203.23;1727127;81;21783;-56
2023/01/05 11:45:05;;;;;;;0.90;0.60;;;;;;;6.11;100.00;98204.02;1734688;81;21141;-55
2023/01/05 11:47:42;;;;;;;0.93;0.70;;;;;;;6.12;100.00;98197.73;1715961;82;21084;-56
2023/01/05 11:50:27;;;;;;;0.67;0.50;;;;;;;6.15;100.00;98200.21;1745543;80;21024;-55
2023/01/05 11:52:53;;;;;;;0.90;0.53;;;;;;;6.18;100.00;98192.91;1744135;80;21338;-55
2023/01/05 11:55:34;;;;;;;0.70;0.50;;;;;;;6.22;100.00;98197.59;1750171;80;21788;-55
2023/01/05 11:58:20;;;;;;;0.83;0.50;;;;;;;6.22;100.00;98197.59;1748337;80;21071;-55
2023/01/05 12:01:13;;;;;;;1.37;0.40;;;;;;;6.24;100.00;98191.22;1758701;80;21025;-55
2023/01/05 12:04:11;;;;;;;0.57;0.40;;;;;;;6.26;100.00;98188.00;1724570;81;21524;-56
2023/01/05 12:07:14;;;;;;;0.97;0.50;;;;;;;6.27;100.00;98187.05;1730679;81;21092;-54
2023/01/05 12:30:56;;;;;;;0.40;0.40;;;;;;;6.48;100.00;98138.67;1845576;75;23290;-54
2023/01/05 12:33:31;;;;;;;0.62;0.37;;;;;;;6.51;100.00;98159.89;1812801;77;21069;-50
2023/01/05 12:36:24;;;;;;;0.40;0.40;;;;;;;6.52;100.00;98153.59;1814931;77;21833;-50
2023/01/05 12:39:12;;;;;;;0.47;0.40;;;;;;;6.53;100.00;98154.85;1813430;77;21480;-49
2023/01/05 12:42:20;;;;;;;1.25;0.40;;;;;;;6.53;100.00;98152.66;1820052;77;21509;-50
2023/01/05 12:45:34;;;;;;;0.50;0.40;;;;;;;6.51;100.00;98152.73;1823925;77;21034;-50
2023/01/05 12:48:18;;;;;;;0.70;0.40;;;;;;;6.49;100.00;98151.09;1810996;77;21476;-52